sensor_id;sensor_type;location;lat;lon;timestamp;P1;durP1;ratioP1;P2;durP2;ratioP2
30335;SDS011;17142;47.990;7.846;2024-03-25T00:01:51;2.10;;;2.00;;
30335;SDS011;17142;47.990;7.846;2024-03-25T00:04:19;2.30;;;1.23;;
30335;SDS011;17142;47.990;7.846;2024-03-25T00:06:47;2.57;;;1.93;;
30335;SDS011;17142;47.990;7.846;2024-03-25T00:09:12;8.27;;;2.37;;
30335;SDS011;17142;47.990;7.846;2024-03-25T00:11:41;2.83;;;1.80;;
30335;SDS011;17142;47.990;7.846;2024-03-25T00:14:09;3.63;;;1.40;;
30335;SDS011;17142;47.990;7.846;2024-03-25T00:16:39;1.83;;;1.73;;
30335;SDS011;17142;47.990;7.846;2024-03-25T00:19:08;2.23;;;1.90;;
30335;SDS011;17142;47.990;7.846;2024-03-25T00:21:36;4.60;;;2.10;;
30335;SDS011;17142;47.990;7.846;2024-03-25T00:24:02;5.17;;;2.23;;
30335;SDS011;17142;47.990;7.846;2024-03-25T00:26:30;7.33;;;1.93;;
30335;SDS011;17142;47.990;7.846;2024-03-25T00:28:56;3.93;;;1.80;;
30335;SDS011;17142;47.990;7.846;2024-03-25T00:31:21;9.30;;;2.23;;
30335;SDS011;17142;47.990;7.846;2024-03-25T00:33:47;2.93;;;2.60;;
30335;SDS011;17142;47.990;7.846;2024-03-25T00:36:17;3.43;;;1.67;;
30335;SDS011;17142;47.990;7.846;2024-03-25T00:38:45;2.60;;;1.97;;
30335;SDS011;17142;47.990;7.846;2024-03-25T00:41:10;2.03;;;1.37;;
30335;SDS011;17142;47.990;7.846;2024-03-25T00:43:36;3.10;;;1.93;;
30335;SDS011;17142;47.990;7.846;2024-03-25T00:46:02;6.83;;;1.90;;
30335;SDS011;17142;47.990;7.846;2024-03-25T00:48:28;3.33;;;2.70;;
30335;SDS011;17142;47.990;7.846;2024-03-25T00:50:53;8.27;;;2.13;;
30335;SDS011;17142;47.990;7.846;2024-03-25T00:53:19;4.67;;;2.33;;
30335;SDS011;17142;47.990;7.846;2024-03-25T00:55:45;1.63;;;1.50;;
30335;SDS011;17142;47.990;7.846;2024-03-25T00:58:11;4.70;;;2.50;;
30335;SDS011;17142;47.990;7.846;2024-03-25T01:00:36;7.37;;;2.80;;
30335;SDS011;17142;47.990;7.846;2024-03-25T01:03:04;6.47;;;2.50;;
30335;SDS011;17142;47.990;7.846;2024-03-25T01:05:30;7.37;;;2.30;;
30335;SDS011;17142;47.990;7.846;2024-03-25T01:07:58;4.17;;;2.07;;
30335;SDS011;17142;47.990;7.846;2024-03-25T01:10:26;3.87;;;2.30;;
30335;SDS011;17142;47.990;7.846;2024-03-25T01:12:55;5.60;;;2.63;;
30335;SDS011;17142;47.990;7.846;2024-03-25T01:15:23;2.90;;;1.67;;
30335;SDS011;17142;47.990;7.846;2024-03-25T01:17:48;2.17;;;1.97;;
30335;SDS011;17142;47.990;7.846;2024-03-25T01:20:14;3.23;;;2.00;;
30335;SDS011;17142;47.990;7.846;2024-03-25T01:22:40;5.20;;;2.30;;
30335;SDS011;17142;47.990;7.846;2024-03-25T01:25:05;5.97;;;2.20;;
30335;SDS011;17142;47.990;7.846;2024-03-25T01:27:32;4.23;;;2.40;;
30335;SDS011;17142;47.990;7.846;2024-03-25T01:29:57;2.60;;;2.00;;
30335;SDS011;17142;47.990;7.846;2024-03-25T01:32:23;7.10;;;2.87;;
30335;SDS011;17142;47.990;7.846;2024-03-25T01:34:51;5.43;;;2.00;;
30335;SDS011;17142;47.990;7.846;2024-03-25T01:37:16;3.30;;;2.03;;
30335;SDS011;17142;47.990;7.846;2024-03-25T01:39:42;3.20;;;2.23;;
30335;SDS011;17142;47.990;7.846;2024-03-25T01:42:08;2.80;;;2.17;;
30335;SDS011;17142;47.990;7.846;2024-03-25T01:44:34;2.80;;;1.70;;
30335;SDS011;17142;47.990;7.846;2024-03-25T01:46:59;2.13;;;1.93;;
30335;SDS011;17142;47.990;7.846;2024-03-25T01:49:28;3.43;;;1.80;;
30335;SDS011;17142;47.990;7.846;2024-03-25T01:51:53;3.60;;;2.00;;
30335;SDS011;17142;47.990;7.846;2024-03-25T01:54:22;2.93;;;2.50;;
30335;SDS011;17142;47.990;7.846;2024-03-25T01:56:48;4.73;;;2.80;;
30335;SDS011;17142;47.990;7.846;2024-03-25T01:59:15;3.70;;;3.00;;
30335;SDS011;17142;47.990;7.846;2024-03-25T02:01:42;2.80;;;1.60;;
30335;SDS011;17142;47.990;7.846;2024-03-25T02:04:09;4.40;;;2.47;;
30335;SDS011;17142;47.990;7.846;2024-03-25T02:06:35;4.53;;;2.60;;
30335;SDS011;17142;47.990;7.846;2024-03-25T02:09:02;3.43;;;2.50;;
30335;SDS011;17142;47.990;7.846;2024-03-25T02:11:28;3.00;;;2.63;;
30335;SDS011;17142;47.990;7.846;2024-03-25T02:13:55;4.40;;;2.80;;
30335;SDS011;17142;47.990;7.846;2024-03-25T02:16:21;3.27;;;2.97;;
30335;SDS011;17142;47.990;7.846;2024-03-25T02:18:46;7.63;;;2.80;;
30335;SDS011;17142;47.990;7.846;2024-03-25T02:21:12;5.57;;;2.50;;
30335;SDS011;17142;47.990;7.846;2024-03-25T02:23:38;2.87;;;2.47;;
30335;SDS011;17142;47.990;7.846;2024-03-25T02:26:06;3.97;;;3.33;;
30335;SDS011;17142;47.990;7.846;2024-03-25T02:28:34;6.53;;;3.50;;
30335;SDS011;17142;47.990;7.846;2024-03-25T02:31:00;4.80;;;2.20;;
30335;SDS011;17142;47.990;7.846;2024-03-25T02:33:26;3.90;;;2.47;;
30335;SDS011;17142;47.990;7.846;2024-03-25T02:35:54;2.50;;;2.30;;
30335;SDS011;17142;47.990;7.846;2024-03-25T02:38:19;2.90;;;2.30;;
30335;SDS011;17142;47.990;7.846;2024-03-25T02:40:45;7.87;;;2.47;;
30335;SDS011;17142;47.990;7.846;2024-03-25T02:43:11;4.07;;;3.37;;
30335;SDS011;17142;47.990;7.846;2024-03-25T02:45:39;4.73;;;2.60;;
30335;SDS011;17142;47.990;7.846;2024-03-25T02:48:04;3.37;;;1.83;;
30335;SDS011;17142;47.990;7.846;2024-03-25T02:50:30;3.07;;;2.17;;
30335;SDS011;17142;47.990;7.846;2024-03-25T02:52:56;3.50;;;2.30;;
30335;SDS011;17142;47.990;7.846;2024-03-25T02:55:21;3.57;;;2.90;;
30335;SDS011;17142;47.990;7.846;2024-03-25T02:57:47;3.20;;;2.00;;
30335;SDS011;17142;47.990;7.846;2024-03-25T03:00:15;2.20;;;2.00;;
30335;SDS011;17142;47.990;7.846;2024-03-25T03:02:40;1.50;;;1.07;;
30335;SDS011;17142;47.990;7.846;2024-03-25T03:05:08;4.40;;;2.43;;
30335;SDS011;17142;47.990;7.846;2024-03-25T03:07:34;5.67;;;2.30;;
30335;SDS011;17142;47.990;7.846;2024-03-25T03:10:02;4.13;;;2.40;;
30335;SDS011;17142;47.990;7.846;2024-03-25T03:12:27;3.83;;;2.27;;
30335;SDS011;17142;47.990;7.846;2024-03-25T03:14:53;2.93;;;2.40;;
30335;SDS011;17142;47.990;7.846;2024-03-25T03:17:21;5.10;;;3.53;;
30335;SDS011;17142;47.990;7.846;2024-03-25T03:19:46;5.53;;;3.00;;
30335;SDS011;17142;47.990;7.846;2024-03-25T03:22:12;4.77;;;2.50;;
30335;SDS011;17142;47.990;7.846;2024-03-25T03:24:38;3.70;;;3.40;;
30335;SDS011;17142;47.990;7.846;2024-03-25T03:27:03;8.53;;;3.13;;
30335;SDS011;17142;47.990;7.846;2024-03-25T03:29:29;3.23;;;2.43;;
30335;SDS011;17142;47.990;7.846;2024-03-25T03:31:55;4.50;;;3.00;;
30335;SDS011;17142;47.990;7.846;2024-03-25T03:34:20;3.73;;;2.37;;
30335;SDS011;17142;47.990;7.846;2024-03-25T03:36:46;3.30;;;3.00;;
30335;SDS011;17142;47.990;7.846;2024-03-25T03:39:11;9.73;;;2.30;;
30335;SDS011;17142;47.990;7.846;2024-03-25T03:41:38;2.97;;;2.27;;
30335;SDS011;17142;47.990;7.846;2024-03-25T03:44:04;4.40;;;3.00;;
30335;SDS011;17142;47.990;7.846;2024-03-25T03:46:32;9.10;;;3.40;;
30335;SDS011;17142;47.990;7.846;2024-03-25T03:49:00;5.13;;;3.37;;
30335;SDS011;17142;47.990;7.846;2024-03-25T03:51:30;3.30;;;3.00;;
30335;SDS011;17142;47.990;7.846;2024-03-25T03:53:56;3.43;;;2.17;;
30335;SDS011;17142;47.990;7.846;2024-03-25T03:56:22;5.00;;;3.20;;
30335;SDS011;17142;47.990;7.846;2024-03-25T03:58:50;6.00;;;2.97;;
30335;SDS011;17142;47.990;7.846;2024-03-25T04:01:16;4.83;;;2.97;;
30335;SDS011;17142;47.990;7.846;2024-03-25T04:03:42;3.33;;;2.60;;
30335;SDS011;17142;47.990;7.846;2024-03-25T04:06:11;4.97;;;3.77;;
30335;SDS011;17142;47.990;7.846;2024-03-25T04:08:43;6.30;;;4.20;;
30335;SDS011;17142;47.990;7.846;2024-03-25T04:11:08;6.40;;;3.87;;
30335;SDS011;17142;47.990;7.846;2024-03-25T04:13:36;3.43;;;2.90;;
30335;SDS011;17142;47.990;7.846;2024-03-25T04:16:03;4.57;;;2.97;;
30335;SDS011;17142;47.990;7.846;2024-03-25T04:18:31;3.50;;;3.07;;
30335;SDS011;17142;47.990;7.846;2024-03-25T04:20:58;4.37;;;3.23;;
30335;SDS011;17142;47.990;7.846;2024-03-25T04:23:26;5.20;;;2.77;;
30335;SDS011;17142;47.990;7.846;2024-03-25T04:25:54;6.93;;;2.93;;
30335;SDS011;17142;47.990;7.846;2024-03-25T04:28:20;4.53;;;3.40;;
30335;SDS011;17142;47.990;7.846;2024-03-25T04:30:54;4.07;;;2.50;;
30335;SDS011;17142;47.990;7.846;2024-03-25T04:33:23;4.77;;;2.73;;
30335;SDS011;17142;47.990;7.846;2024-03-25T04:35:48;5.77;;;2.40;;
30335;SDS011;17142;47.990;7.846;2024-03-25T04:38:17;6.63;;;2.80;;
30335;SDS011;17142;47.990;7.846;2024-03-25T04:40:45;4.53;;;2.43;;
30335;SDS011;17142;47.990;7.846;2024-03-25T04:43:11;7.37;;;2.90;;
30335;SDS011;17142;47.990;7.846;2024-03-25T04:45:36;6.07;;;2.83;;
30335;SDS011;17142;47.990;7.846;2024-03-25T04:48:02;4.93;;;2.70;;
30335;SDS011;17142;47.990;7.846;2024-03-25T04:50:28;2.93;;;2.57;;
30335;SDS011;17142;47.990;7.846;2024-03-25T04:52:55;2.00;;;1.80;;
30335;SDS011;17142;47.990;7.846;2024-03-25T04:55:20;3.23;;;2.90;;
30335;SDS011;17142;47.990;7.846;2024-03-25T04:57:46;5.97;;;2.77;;
30335;SDS011;17142;47.990;7.846;2024-03-25T05:00:14;4.10;;;2.97;;
30335;SDS011;17142;47.990;7.846;2024-03-25T05:02:40;4.20;;;2.63;;
30335;SDS011;17142;47.990;7.846;2024-03-25T05:05:08;4.70;;;3.30;;
30335;SDS011;17142;47.990;7.846;2024-03-25T05:07:34;3.10;;;2.10;;
30335;SDS011;17142;47.990;7.846;2024-03-25T05:10:00;5.07;;;3.43;;
30335;SDS011;17142;47.990;7.846;2024-03-25T05:12:26;6.90;;;4.33;;
30335;SDS011;17142;47.990;7.846;2024-03-25T05:14:55;4.53;;;3.13;;
30335;SDS011;17142;47.990;7.846;2024-03-25T05:17:23;4.40;;;3.30;;
30335;SDS011;17142;47.990;7.846;2024-03-25T05:19:51;4.50;;;4.10;;
30335;SDS011;17142;47.990;7.846;2024-03-25T05:22:16;6.57;;;3.37;;
30335;SDS011;17142;47.990;7.846;2024-03-25T05:24:42;9.23;;;4.17;;
30335;SDS011;17142;47.990;7.846;2024-03-25T05:27:11;4.20;;;3.80;;
30335;SDS011;17142;47.990;7.846;2024-03-25T05:29:36;6.40;;;3.53;;
30335;SDS011;17142;47.990;7.846;2024-03-25T05:32:02;4.20;;;3.03;;
30335;SDS011;17142;47.990;7.846;2024-03-25T05:34:30;3.17;;;2.63;;
30335;SDS011;17142;47.990;7.846;2024-03-25T05:36:56;4.23;;;3.63;;
30335;SDS011;17142;47.990;7.846;2024-03-25T05:39:22;3.50;;;2.80;;
30335;SDS011;17142;47.990;7.846;2024-03-25T05:41:50;6.23;;;4.13;;
30335;SDS011;17142;47.990;7.846;2024-03-25T05:44:18;4.20;;;3.37;;
30335;SDS011;17142;47.990;7.846;2024-03-25T05:46:44;4.30;;;2.93;;
30335;SDS011;17142;47.990;7.846;2024-03-25T05:49:11;2.90;;;1.77;;
30335;SDS011;17142;47.990;7.846;2024-03-25T05:51:37;2.60;;;2.40;;
30335;SDS011;17142;47.990;7.846;2024-03-25T05:54:03;11.10;;;3.10;;
30335;SDS011;17142;47.990;7.846;2024-03-25T05:56:31;3.30;;;3.03;;
30335;SDS011;17142;47.990;7.846;2024-03-25T05:58:56;1.77;;;1.27;;
30335;SDS011;17142;47.990;7.846;2024-03-25T06:01:23;2.70;;;2.50;;
30335;SDS011;17142;47.990;7.846;2024-03-25T06:03:48;2.60;;;1.70;;
30335;SDS011;17142;47.990;7.846;2024-03-25T06:06:14;3.03;;;2.37;;
30335;SDS011;17142;47.990;7.846;2024-03-25T06:08:40;5.60;;;3.07;;
30335;SDS011;17142;47.990;7.846;2024-03-25T06:11:05;2.57;;;1.60;;
30335;SDS011;17142;47.990;7.846;2024-03-25T06:13:33;4.30;;;2.40;;
30335;SDS011;17142;47.990;7.846;2024-03-25T06:15:59;3.30;;;3.00;;
30335;SDS011;17142;47.990;7.846;2024-03-25T06:18:24;3.33;;;2.13;;
30335;SDS011;17142;47.990;7.846;2024-03-25T06:20:50;2.10;;;1.80;;
30335;SDS011;17142;47.990;7.846;2024-03-25T06:23:24;2.60;;;2.37;;
30335;SDS011;17142;47.990;7.846;2024-03-25T06:25:51;2.77;;;2.00;;
30335;SDS011;17142;47.990;7.846;2024-03-25T06:28:18;1.67;;;1.57;;
30335;SDS011;17142;47.990;7.846;2024-03-25T06:30:48;2.50;;;1.00;;
30335;SDS011;17142;47.990;7.846;2024-03-25T06:33:33;1.33;;;1.00;;
30335;SDS011;17142;47.990;7.846;2024-03-25T06:36:19;6.10;;;2.10;;
30335;SDS011;17142;47.990;7.846;2024-03-25T06:38:48;3.20;;;1.90;;
30335;SDS011;17142;47.990;7.846;2024-03-25T06:41:14;3.73;;;3.00;;
30335;SDS011;17142;47.990;7.846;2024-03-25T06:43:42;4.63;;;2.40;;
30335;SDS011;17142;47.990;7.846;2024-03-25T06:46:08;1.53;;;1.43;;
30335;SDS011;17142;47.990;7.846;2024-03-25T06:48:34;4.33;;;2.07;;
30335;SDS011;17142;47.990;7.846;2024-03-25T06:50:59;3.23;;;1.90;;
30335;SDS011;17142;47.990;7.846;2024-03-25T06:53:25;8.67;;;2.90;;
30335;SDS011;17142;47.990;7.846;2024-03-25T06:55:54;6.30;;;2.30;;
30335;SDS011;17142;47.990;7.846;2024-03-25T06:58:20;3.50;;;2.20;;
30335;SDS011;17142;47.990;7.846;2024-03-25T07:00:46;4.40;;;2.30;;
30335;SDS011;17142;47.990;7.846;2024-03-25T07:03:15;5.43;;;1.87;;
30335;SDS011;17142;47.990;7.846;2024-03-25T07:05:44;1.60;;;1.13;;
30335;SDS011;17142;47.990;7.846;2024-03-25T07:08:11;3.33;;;2.00;;
30335;SDS011;17142;47.990;7.846;2024-03-25T07:10:37;4.63;;;1.60;;
30335;SDS011;17142;47.990;7.846;2024-03-25T07:13:05;2.77;;;1.33;;
30335;SDS011;17142;47.990;7.846;2024-03-25T07:15:31;2.17;;;1.97;;
30335;SDS011;17142;47.990;7.846;2024-03-25T07:17:57;11.10;;;2.50;;
30335;SDS011;17142;47.990;7.846;2024-03-25T07:20:25;4.73;;;2.30;;
30335;SDS011;17142;47.990;7.846;2024-03-25T07:22:51;2.50;;;2.30;;
30335;SDS011;17142;47.990;7.846;2024-03-25T07:25:24;2.97;;;1.77;;
30335;SDS011;17142;47.990;7.846;2024-03-25T07:27:50;3.60;;;2.00;;
30335;SDS011;17142;47.990;7.846;2024-03-25T07:30:16;3.23;;;2.10;;
30335;SDS011;17142;47.990;7.846;2024-03-25T07:32:42;2.00;;;1.23;;
30335;SDS011;17142;47.990;7.846;2024-03-25T07:35:10;4.57;;;2.43;;
30335;SDS011;17142;47.990;7.846;2024-03-25T07:37:43;4.13;;;1.73;;
30335;SDS011;17142;47.990;7.846;2024-03-25T07:40:09;3.17;;;2.27;;
30335;SDS011;17142;47.990;7.846;2024-03-25T07:42:36;1.87;;;1.50;;
30335;SDS011;17142;47.990;7.846;2024-03-25T07:45:03;6.30;;;2.80;;
30335;SDS011;17142;47.990;7.846;2024-03-25T07:47:30;3.30;;;2.43;;
30335;SDS011;17142;47.990;7.846;2024-03-25T07:49:58;4.80;;;2.03;;
30335;SDS011;17142;47.990;7.846;2024-03-25T07:52:27;5.40;;;2.30;;
30335;SDS011;17142;47.990;7.846;2024-03-25T07:54:56;3.30;;;3.00;;
30335;SDS011;17142;47.990;7.846;2024-03-25T07:57:23;1.70;;;1.60;;
30335;SDS011;17142;47.990;7.846;2024-03-25T07:59:49;2.30;;;1.70;;
30335;SDS011;17142;47.990;7.846;2024-03-25T08:02:15;4.20;;;1.87;;
30335;SDS011;17142;47.990;7.846;2024-03-25T08:04:41;3.93;;;1.37;;
30335;SDS011;17142;47.990;7.846;2024-03-25T08:07:09;2.47;;;1.37;;
30335;SDS011;17142;47.990;7.846;2024-03-25T08:09:34;1.87;;;1.77;;
30335;SDS011;17142;47.990;7.846;2024-03-25T08:12:00;3.70;;;1.67;;
30335;SDS011;17142;47.990;7.846;2024-03-25T08:14:25;2.80;;;1.70;;
30335;SDS011;17142;47.990;7.846;2024-03-25T08:16:51;3.53;;;1.40;;
30335;SDS011;17142;47.990;7.846;2024-03-25T08:19:19;2.33;;;1.77;;
30335;SDS011;17142;47.990;7.846;2024-03-25T08:21:49;2.87;;;1.47;;
30335;SDS011;17142;47.990;7.846;2024-03-25T08:24:18;4.80;;;2.17;;
30335;SDS011;17142;47.990;7.846;2024-03-25T08:26:43;5.67;;;1.43;;
30335;SDS011;17142;47.990;7.846;2024-03-25T08:29:11;1.57;;;1.47;;
30335;SDS011;17142;47.990;7.846;2024-03-25T08:31:39;2.23;;;1.57;;
30335;SDS011;17142;47.990;7.846;2024-03-25T08:34:05;5.47;;;1.80;;
30335;SDS011;17142;47.990;7.846;2024-03-25T08:36:30;4.13;;;1.23;;
30335;SDS011;17142;47.990;7.846;2024-03-25T08:38:56;3.60;;;1.37;;
30335;SDS011;17142;47.990;7.846;2024-03-25T08:41:24;1.53;;;1.13;;
30335;SDS011;17142;47.990;7.846;2024-03-25T08:43:52;4.50;;;1.70;;
30335;SDS011;17142;47.990;7.846;2024-03-25T08:46:17;3.20;;;1.23;;
30335;SDS011;17142;47.990;7.846;2024-03-25T08:48:43;1.80;;;1.13;;
30335;SDS011;17142;47.990;7.846;2024-03-25T08:51:11;3.17;;;1.50;;
30335;SDS011;17142;47.990;7.846;2024-03-25T08:53:36;2.17;;;1.63;;
30335;SDS011;17142;47.990;7.846;2024-03-25T08:56:02;3.23;;;1.90;;
30335;SDS011;17142;47.990;7.846;2024-03-25T08:58:28;2.60;;;1.83;;
30335;SDS011;17142;47.990;7.846;2024-03-25T09:00:54;2.93;;;1.30;;
30335;SDS011;17142;47.990;7.846;2024-03-25T09:03:19;2.50;;;0.97;;
30335;SDS011;17142;47.990;7.846;2024-03-25T09:05:47;5.87;;;1.17;;
30335;SDS011;17142;47.990;7.846;2024-03-25T09:08:13;1.53;;;0.90;;
30335;SDS011;17142;47.990;7.846;2024-03-25T09:10:42;1.90;;;1.47;;
30335;SDS011;17142;47.990;7.846;2024-03-25T09:13:37;2.20;;;1.00;;
30335;SDS011;17142;47.990;7.846;2024-03-25T09:16:03;3.07;;;1.70;;
30335;SDS011;17142;47.990;7.846;2024-03-25T09:18:30;2.20;;;1.30;;
30335;SDS011;17142;47.990;7.846;2024-03-25T09:20:55;3.20;;;2.27;;
30335;SDS011;17142;47.990;7.846;2024-03-25T09:23:24;2.33;;;1.23;;
30335;SDS011;17142;47.990;7.846;2024-03-25T09:25:55;2.03;;;1.40;;
30335;SDS011;17142;47.990;7.846;2024-03-25T09:28:23;3.43;;;1.10;;
30335;SDS011;17142;47.990;7.846;2024-03-25T09:30:51;1.57;;;1.00;;
30335;SDS011;17142;47.990;7.846;2024-03-25T09:33:17;2.97;;;1.13;;
30335;SDS011;17142;47.990;7.846;2024-03-25T09:35:42;2.10;;;1.30;;
30335;SDS011;17142;47.990;7.846;2024-03-25T09:38:08;1.97;;;1.20;;
30335;SDS011;17142;47.990;7.846;2024-03-25T09:40:35;1.87;;;1.00;;
30335;SDS011;17142;47.990;7.846;2024-03-25T09:43:06;2.53;;;1.20;;
30335;SDS011;17142;47.990;7.846;2024-03-25T09:45:48;2.93;;;1.10;;
30335;SDS011;17142;47.990;7.846;2024-03-25T09:48:15;2.10;;;1.47;;
30335;SDS011;17142;47.990;7.846;2024-03-25T09:50:43;1.80;;;1.00;;
30335;SDS011;17142;47.990;7.846;2024-03-25T09:53:14;12.87;;;1.83;;
30335;SDS011;17142;47.990;7.846;2024-03-25T09:55:40;2.20;;;1.03;;
30335;SDS011;17142;47.990;7.846;2024-03-25T09:58:05;1.57;;;0.80;;
30335;SDS011;17142;47.990;7.846;2024-03-25T10:00:34;3.13;;;1.37;;
30335;SDS011;17142;47.990;7.846;2024-03-25T10:03:03;2.23;;;1.43;;
30335;SDS011;17142;47.990;7.846;2024-03-25T10:05:29;0.87;;;0.87;;
30335;SDS011;17142;47.990;7.846;2024-03-25T10:07:54;1.87;;;1.23;;
30335;SDS011;17142;47.990;7.846;2024-03-25T10:10:20;1.67;;;1.40;;
30335;SDS011;17142;47.990;7.846;2024-03-25T10:12:46;1.57;;;0.67;;
30335;SDS011;17142;47.990;7.846;2024-03-25T10:15:17;2.10;;;1.20;;
30335;SDS011;17142;47.990;7.846;2024-03-25T10:17:43;2.13;;;1.17;;
30335;SDS011;17142;47.990;7.846;2024-03-25T10:20:15;2.10;;;1.17;;
30335;SDS011;17142;47.990;7.846;2024-03-25T10:22:46;1.20;;;1.07;;
30335;SDS011;17142;47.990;7.846;2024-03-25T10:27:59;2.20;;;1.53;;
30335;SDS011;17142;47.990;7.846;2024-03-25T10:30:28;6.70;;;1.07;;
30335;SDS011;17142;47.990;7.846;2024-03-25T10:32:58;1.17;;;1.07;;
30335;SDS011;17142;47.990;7.846;2024-03-25T10:35:28;4.67;;;1.47;;
30335;SDS011;17142;47.990;7.846;2024-03-25T10:38:01;1.47;;;0.83;;
30335;SDS011;17142;47.990;7.846;2024-03-25T10:40:31;2.37;;;1.03;;
30335;SDS011;17142;47.990;7.846;2024-03-25T10:43:11;1.70;;;1.00;;
30335;SDS011;17142;47.990;7.846;2024-03-25T10:45:40;1.13;;;1.00;;
30335;SDS011;17142;47.990;7.846;2024-03-25T10:48:09;2.00;;;1.27;;
30335;SDS011;17142;47.990;7.846;2024-03-25T10:50:40;2.10;;;1.30;;
30335;SDS011;17142;47.990;7.846;2024-03-25T10:53:08;1.50;;;1.27;;
30335;SDS011;17142;47.990;7.846;2024-03-25T10:55:44;1.80;;;1.00;;
30335;SDS011;17142;47.990;7.846;2024-03-25T10:58:15;4.10;;;1.57;;
30335;SDS011;17142;47.990;7.846;2024-03-25T11:00:44;1.30;;;1.20;;
30335;SDS011;17142;47.990;7.846;2024-03-25T11:03:10;3.07;;;1.60;;
30335;SDS011;17142;47.990;7.846;2024-03-25T11:05:36;1.70;;;1.30;;
30335;SDS011;17142;47.990;7.846;2024-03-25T11:08:12;1.93;;;1.60;;
30335;SDS011;17142;47.990;7.846;2024-03-25T11:10:39;4.63;;;1.47;;
30335;SDS011;17142;47.990;7.846;2024-03-25T11:13:14;2.20;;;1.53;;
30335;SDS011;17142;47.990;7.846;2024-03-25T11:15:45;3.13;;;1.40;;
30335;SDS011;17142;47.990;7.846;2024-03-25T11:18:15;2.07;;;1.20;;
30335;SDS011;17142;47.990;7.846;2024-03-25T11:20:42;4.10;;;1.30;;
30335;SDS011;17142;47.990;7.846;2024-03-25T11:23:09;1.80;;;1.00;;
30335;SDS011;17142;47.990;7.846;2024-03-25T11:25:38;2.47;;;1.50;;
30335;SDS011;17142;47.990;7.846;2024-03-25T11:28:05;2.30;;;1.40;;
30335;SDS011;17142;47.990;7.846;2024-03-25T11:30:31;2.90;;;1.33;;
30335;SDS011;17142;47.990;7.846;2024-03-25T11:33:01;2.23;;;1.27;;
30335;SDS011;17142;47.990;7.846;2024-03-25T11:35:29;1.43;;;1.10;;
30335;SDS011;17142;47.990;7.846;2024-03-25T11:38:04;1.93;;;1.03;;
30335;SDS011;17142;47.990;7.846;2024-03-25T11:40:30;1.00;;;0.83;;
30335;SDS011;17142;47.990;7.846;2024-03-25T11:42:56;0.87;;;0.87;;
30335;SDS011;17142;47.990;7.846;2024-03-25T11:45:23;1.90;;;1.67;;
30335;SDS011;17142;47.990;7.846;2024-03-25T11:47:51;3.97;;;1.40;;
30335;SDS011;17142;47.990;7.846;2024-03-25T11:50:17;2.07;;;0.93;;
30335;SDS011;17142;47.990;7.846;2024-03-25T11:52:45;4.73;;;1.00;;
30335;SDS011;17142;47.990;7.846;2024-03-25T11:55:17;2.87;;;0.87;;
30335;SDS011;17142;47.990;7.846;2024-03-25T11:57:45;2.23;;;1.30;;
30335;SDS011;17142;47.990;7.846;2024-03-25T12:00:19;1.20;;;1.10;;
30335;SDS011;17142;47.990;7.846;2024-03-25T12:02:47;1.40;;;1.30;;
30335;SDS011;17142;47.990;7.846;2024-03-25T12:05:13;1.70;;;0.60;;
30335;SDS011;17142;47.990;7.846;2024-03-25T12:07:41;2.40;;;1.33;;
30335;SDS011;17142;47.990;7.846;2024-03-25T12:10:07;2.30;;;1.00;;
30335;SDS011;17142;47.990;7.846;2024-03-25T12:12:51;0.90;;;0.90;;
30335;SDS011;17142;47.990;7.846;2024-03-25T12:15:17;1.17;;;0.87;;
30335;SDS011;17142;47.990;7.846;2024-03-25T12:17:43;3.03;;;1.43;;
30335;SDS011;17142;47.990;7.846;2024-03-25T12:20:09;2.30;;;1.30;;
30335;SDS011;17142;47.990;7.846;2024-03-25T12:22:38;2.10;;;1.27;;
30335;SDS011;17142;47.990;7.846;2024-03-25T12:25:04;1.30;;;1.10;;
30335;SDS011;17142;47.990;7.846;2024-03-25T12:27:34;2.40;;;1.07;;
30335;SDS011;17142;47.990;7.846;2024-03-25T12:30:01;1.90;;;0.93;;
30335;SDS011;17142;47.990;7.846;2024-03-25T12:32:45;4.40;;;1.17;;
30335;SDS011;17142;47.990;7.846;2024-03-25T12:35:16;1.67;;;1.00;;
30335;SDS011;17142;47.990;7.846;2024-03-25T12:37:46;0.80;;;0.80;;
30335;SDS011;17142;47.990;7.846;2024-03-25T12:40:25;1.43;;;1.03;;
30335;SDS011;17142;47.990;7.846;2024-03-25T12:42:52;3.33;;;1.40;;
30335;SDS011;17142;47.990;7.846;2024-03-25T12:45:19;1.90;;;0.70;;
30335;SDS011;17142;47.990;7.846;2024-03-25T12:47:45;0.73;;;0.73;;
30335;SDS011;17142;47.990;7.846;2024-03-25T12:50:11;2.37;;;1.20;;
30335;SDS011;17142;47.990;7.846;2024-03-25T12:52:41;0.97;;;0.87;;
30335;SDS011;17142;47.990;7.846;2024-03-25T12:55:09;3.13;;;1.37;;
30335;SDS011;17142;47.990;7.846;2024-03-25T12:57:35;1.23;;;0.90;;
30335;SDS011;17142;47.990;7.846;2024-03-25T13:00:01;1.37;;;0.90;;
30335;SDS011;17142;47.990;7.846;2024-03-25T13:02:29;1.20;;;1.10;;
30335;SDS011;17142;47.990;7.846;2024-03-25T13:04:56;1.70;;;1.00;;
30335;SDS011;17142;47.990;7.846;2024-03-25T13:07:21;4.33;;;1.20;;
30335;SDS011;17142;47.990;7.846;2024-03-25T13:09:47;1.20;;;1.03;;
30335;SDS011;17142;47.990;7.846;2024-03-25T13:12:13;0.80;;;0.70;;
30335;SDS011;17142;47.990;7.846;2024-03-25T13:14:39;2.13;;;0.90;;
30335;SDS011;17142;47.990;7.846;2024-03-25T13:17:04;1.23;;;0.97;;
30335;SDS011;17142;47.990;7.846;2024-03-25T13:19:33;2.83;;;1.20;;
30335;SDS011;17142;47.990;7.846;2024-03-25T13:22:01;1.23;;;0.90;;
30335;SDS011;17142;47.990;7.846;2024-03-25T13:24:26;1.00;;;0.70;;
30335;SDS011;17142;47.990;7.846;2024-03-25T13:26:52;1.40;;;0.93;;
30335;SDS011;17142;47.990;7.846;2024-03-25T13:29:20;1.10;;;0.70;;
30335;SDS011;17142;47.990;7.846;2024-03-25T13:31:45;1.07;;;0.93;;
30335;SDS011;17142;47.990;7.846;2024-03-25T13:34:13;1.53;;;0.77;;
30335;SDS011;17142;47.990;7.846;2024-03-25T13:36:39;2.20;;;1.10;;
30335;SDS011;17142;47.990;7.846;2024-03-25T13:39:04;1.70;;;0.70;;
30335;SDS011;17142;47.990;7.846;2024-03-25T13:41:33;2.90;;;0.80;;
30335;SDS011;17142;47.990;7.846;2024-03-25T13:43:59;0.60;;;0.50;;
30335;SDS011;17142;47.990;7.846;2024-03-25T13:46:25;1.23;;;0.87;;
30335;SDS011;17142;47.990;7.846;2024-03-25T13:48:51;1.43;;;0.60;;
30335;SDS011;17142;47.990;7.846;2024-03-25T13:51:17;0.93;;;0.80;;
30335;SDS011;17142;47.990;7.846;2024-03-25T13:53:45;0.93;;;0.80;;
30335;SDS011;17142;47.990;7.846;2024-03-25T13:56:13;5.37;;;0.77;;
30335;SDS011;17142;47.990;7.846;2024-03-25T13:58:39;2.47;;;0.80;;
30335;SDS011;17142;47.990;7.846;2024-03-25T14:01:04;1.03;;;0.93;;
30335;SDS011;17142;47.990;7.846;2024-03-25T14:03:31;1.00;;;0.90;;
30335;SDS011;17142;47.990;7.846;2024-03-25T14:05:56;0.80;;;0.67;;
30335;SDS011;17142;47.990;7.846;2024-03-25T14:08:22;1.40;;;0.77;;
30335;SDS011;17142;47.990;7.846;2024-03-25T14:10:56;1.40;;;1.10;;
30335;SDS011;17142;47.990;7.846;2024-03-25T14:13:23;3.40;;;1.27;;
30335;SDS011;17142;47.990;7.846;2024-03-25T14:15:51;1.10;;;0.53;;
30335;SDS011;17142;47.990;7.846;2024-03-25T14:18:17;1.27;;;0.80;;
30335;SDS011;17142;47.990;7.846;2024-03-25T14:20:42;0.70;;;0.70;;
30335;SDS011;17142;47.990;7.846;2024-03-25T14:23:08;1.17;;;0.90;;
30335;SDS011;17142;47.990;7.846;2024-03-25T14:25:37;0.93;;;0.50;;
30335;SDS011;17142;47.990;7.846;2024-03-25T14:28:03;1.20;;;1.10;;
30335;SDS011;17142;47.990;7.846;2024-03-25T14:30:29;2.03;;;0.87;;
30335;SDS011;17142;47.990;7.846;2024-03-25T14:32:54;1.57;;;0.73;;
30335;SDS011;17142;47.990;7.846;2024-03-25T14:35:20;2.73;;;0.73;;
30335;SDS011;17142;47.990;7.846;2024-03-25T14:37:47;2.37;;;0.80;;
30335;SDS011;17142;47.990;7.846;2024-03-25T14:40:16;0.80;;;0.70;;
30335;SDS011;17142;47.990;7.846;2024-03-25T14:42:44;2.50;;;1.10;;
30335;SDS011;17142;47.990;7.846;2024-03-25T14:45:10;1.00;;;0.90;;
30335;SDS011;17142;47.990;7.846;2024-03-25T14:47:36;1.83;;;0.70;;
30335;SDS011;17142;47.990;7.846;2024-03-25T14:50:01;0.90;;;0.80;;
30335;SDS011;17142;47.990;7.846;2024-03-25T14:52:30;1.27;;;0.90;;